Llanidloes, United Kingdom
Current Conditions -  °F | °C
As of 3:50 AM on Friday 19 Dec 2014 (Local Time) from EGOS Reporting Station
Broken Clouds Broken Clouds  
Wind Chill: 44°   Ceiling: 3900
Heat Index: 48°   Visibility: 6mi
Dew Point: 41°   Wind: 10mph
Humidity: 76%   Direction: 280°W
Pressure: 29.74"   Gusts: NA
Location:  52.45°N, 3.54°W
Report Text: EGOS 190350Z AUTO 28009KT 9999 FEW034/// BKN039/// BKN047/// 09/05 Q1007
Loading
Personal Weather Stations






























Interactive Weather Map New forecast layout! Learn more

10-Day Weather Forecast

Advertisements
Track Severe Weather on mobile